CMA CGM Africa One — C6YR8 — position and weather

sailwx.info

Track history (hours):
 
Tides and Currents Weather Stations Pressure Air Temp Water Temp Dewpoint Dewpoint Depression Visibility Wind Speed Wind Dir Waves Ship Positions

CMA CGM Africa One

Last reported at 2018-Jun-19 02:30 UTC. Time now 2018-Jun-19 02:41 UTC.
Position N 51°28' E 000°20'.

Length 228 m; draft 8.3 m.

Type: Ship. MMSI: 311043200.

Date/timePositionNaut miles runAvg speedWind from/ knotsBaromVisibWave heightAir tempDewpointWater temp
2018-Jun-19 02:30N 51°28' E 000°20'0 0.0
2018-Jun-19 02:00N 51°28' E 000°20'0 0.0
2018-Jun-19 01:30N 51°28' E 000°20'0 0.0
2018-Jun-19 01:00N 51°28' E 000°20'0 0.0
2018-Jun-19 00:30N 51°28' E 000°20'0 0.0
2018-Jun-19 00:00N 51°28' E 000°20'0 0.0
2018-Jun-18 23:30N 51°28' E 000°20'0 0.0
2018-Jun-18 23:01N 51°28' E 000°20'0 0.0
2018-Jun-18 22:30N 51°28' E 000°20'0 0.0
2018-Jun-18 22:01N 51°28' E 000°20'0 0.0
2018-Jun-18 21:30N 51°28' E 000°20'0 0.0
2018-Jun-18 21:01N 51°28' E 000°20'0 0.0
2018-Jun-18 20:31N 51°28' E 000°20'0 0.0
2018-Jun-18 20:00N 51°28' E 000°20'0 0.0
2018-Jun-18 19:31N 51°28' E 000°20'0 0.0
2018-Jun-18 19:00N 51°28' E 000°20'0 0.0
2018-Jun-18 18:30N 51°28' E 000°20'0 0.0
2018-Jun-18 18:00N 51°28' E 000°20'0 0.0
2018-Jun-18 17:31N 51°28' E 000°20'0 0.0
2018-Jun-18 17:00N 51°28' E 000°20'0 0.0
2018-Jun-18 16:30N 51°28' E 000°20'0 0.0
2018-Jun-18 16:00N 51°28' E 000°20'0 0.0
2018-Jun-18 15:31N 51°28' E 000°20'0 0.0
2018-Jun-18 15:00N 51°28' E 000°20'0 0.0
2018-Jun-18 14:30N 51°28' E 000°20'0 0.0
2018-Jun-18 14:01N 51°28' E 000°20'0 0.0
2018-Jun-18 13:30N 51°28' E 000°20'0 0.3
2018-Jun-18 13:01N 51°27' E 000°20'3 6.8
2018-Jun-18 12:30N 51°27' E 000°25'511.0
2018-Jun-18 12:00N 51°30' E 000°32'815.2
2018-Jun-18 11:31N 51°30' E 000°44'816.6
2018-Jun-18 11:01N 51°29' E 000°58'917.1
2018-Jun-18 10:30N 51°33' E 001°10'714.6
2018-Jun-18 10:01N 51°36' E 001°20'511.0
2018-Jun-18 09:31N 51°33' E 001°27'714.3
2018-Jun-18 09:01N 51°26' E 001°32'4 7.8
2018-Jun-18 08:30N 51°23' E 001°35'4 8.4
2018-Jun-18 08:01N 51°19' E 001°37'5 9.3
2018-Jun-18 07:31N 51°14' E 001°39'510.0
2018-Jun-18 07:01N 51°10' E 001°36'611.6
2018-Jun-18 06:31N 51°06' E 001°42'510.8
2018-Jun-18 06:01N 51°03' E 001°50'611.0
2018-Jun-18 05:30N 51°03' E 001°58'713.3
2018-Jun-18 05:00N 51°03' E 002°09'2 2.1
2018-Jun-18 03:54N 51°01' E 002°11'0 0.0
2018-Jun-18 03:30N 51°01' E 002°11'0 0.0
2018-Jun-18 00:56N 51°01' E 002°11'0 0.0
2018-Jun-18 00:16N 51°01' E 002°11'0 0.0
2018-Jun-17 23:49N 51°01' E 002°11'0 0.0
2018-Jun-17 23:25N 51°01' E 002°11'0 0.0
2018-Jun-17 22:15N 51°01' E 002°11'0 0.0
2018-Jun-17 21:57N 51°01' E 002°11'0 0.0
2018-Jun-17 21:14N 51°01' E 002°11'0 0.0
2018-Jun-17 20:56N 51°01' E 002°11'0 0.0
2018-Jun-17 20:16N 51°01' E 002°11'0 0.0
2018-Jun-17 19:37N 51°01' E 002°11'0 0.0
2018-Jun-17 18:22N 51°01' E 002°11'0 0.0
2018-Jun-17 17:58N 51°01' E 002°11'0 0.0
2018-Jun-17 17:30N 51°01' E 002°11'0 0.0
2018-Jun-17 16:14N 51°01' E 002°11'0 0.0
2018-Jun-17 15:53N 51°01' E 002°11'0 0.0
2018-Jun-17 15:27N 51°01' E 002°11'0 0.0
2018-Jun-17 15:00N 51°01' E 002°11'0 0.0
2018-Jun-17 14:24N 51°01' E 002°11'1 2.5
2018-Jun-17 14:00N 51°02' E 002°10'612.7
2018-Jun-17 13:30N 51°03' E 002°00'715.0
2018-Jun-17 13:01N 51°02' E 001°48'510.4
2018-Jun-17 12:30N 51°01' E 001°40'713.6
2018-Jun-17 12:00N 50°56' E 001°33'612.6
2018-Jun-17 11:30N 50°50' E 001°28'711.7
2018-Jun-17 10:53N 50°44' E 001°24'411.0
2018-Jun-17 10:29N 50°40' E 001°20'2710.9
2018-Jun-17 07:59N 50°25' E 000°44'2111.1
2018-Jun-17 06:05N 50°20' E 000°12'210.7
2018-Jun-17 05:54N 50°19' E 000°09'410.7
2018-Jun-17 05:30N 50°18' E 000°03'910.6
2018-Jun-17 04:36N 50°16' W 000°12'110.5
2018-Jun-17 04:30N 50°16' W 000°13'510.4
2018-Jun-17 04:00N 50°15' W 000°21'510.6
2018-Jun-17 03:30N 50°14' W 000°29'510.8
2018-Jun-17 03:00N 50°12' W 000°37'611.1
2018-Jun-17 02:26N 50°10' W 000°47'611.7
2018-Jun-17 01:54N 50°08' W 000°56'812.6
2018-Jun-17 01:17N 50°06' W 001°08'513.4
2018-Jun-17 00:56N 50°05' W 001°15'614.1
2018-Jun-17 00:30N 50°03' W 001°24'814.9
2018-Jun-16 23:58N 50°01' W 001°36'3116.1
2018-Jun-16 22:03N 49°54' W 002°23'216.2
2018-Jun-16 21:57N 49°54' W 002°25'815.8
2018-Jun-16 21:28N 49°51' W 002°36'715.6
2018-Jun-16 21:00N 49°49' W 002°47'815.0
2018-Jun-16 20:29N 49°46' W 002°58'1414.6
2018-Jun-16 19:31N 49°38' W 003°16'214.2
2018-Jun-16 19:23N 49°37' W 003°19'1014.3
2018-Jun-16 18:43N 49°32' W 003°31'414.0
2018-Jun-16 18:26N 49°30' W 003°36'1114.0
2018-Jun-16 17:37N 49°24' W 003°52'213.9
2018-Jun-16 17:30N 49°24' W 003°54'3513.2
2018-Jun-16 14:49N 49°06' W 004°41'412.0
2018-Jun-16 14:28N 49°04' W 004°47'612.0
2018-Jun-16 13:59N 49°01' W 004°55'1211.2
2018-Jun-16 12:56N 48°56' W 005°10'510.9
2018-Jun-16 12:30N 48°53' W 005°16'510.7
2018-Jun-16 12:00N 48°51' W 005°24'510.4
2018-Jun-16 11:30N 48°48' W 005°30'57412.9
2018-Jun-14 15:02N 39°45' W 009°50'213.0
2018-Jun-14 14:52N 39°43' W 009°50'1913.0
2018-Jun-14 13:23N 39°24' W 009°51'513.2
2018-Jun-14 13:00N 39°19' W 009°51'713.2
2018-Jun-14 12:30N 39°12' W 009°51'713.2
2018-Jun-14 12:00N 39°06' W 009°51'713.2
2018-Jun-14 11:30N 38°59' W 009°51'713.2
2018-Jun-14 11:00N 38°52' W 009°51'713.3
2018-Jun-14 10:30N 38°46' W 009°51'713.4
2018-Jun-14 10:00N 38°39' W 009°50'612.7
2018-Jun-14 09:30N 38°33' W 009°48'612.6
2018-Jun-14 09:00N 38°27' W 009°46'612.6
2018-Jun-14 08:30N 38°21' W 009°44'612.5
2018-Jun-14 08:00N 38°15' W 009°42'612.5
2018-Jun-14 07:30N 38°09' W 009°40'815.6
2018-Jun-14 07:00N 38°01' W 009°38'1018.6
2018-Jun-14 06:27N 37°51' W 009°35'716.2
2018-Jun-14 06:00N 37°44' W 009°33'713.5
2018-Jun-14 05:30N 37°37' W 009°32'713.3
2018-Jun-14 05:00N 37°31' W 009°29'913.7
2018-Jun-14 04:21N 37°22' W 009°27'513.4
2018-Jun-14 03:57N 37°17' W 009°25'613.2
2018-Jun-14 03:28N 37°11' W 009°24'713.2
2018-Jun-14 02:55N 37°03' W 009°23'913.1
2018-Jun-14 02:15N 36°55' W 009°20'312.7
2018-Jun-14 02:00N 36°52' W 009°19'613.1
2018-Jun-14 01:31N 36°47' W 009°14'713.2
2018-Jun-14 01:01N 36°44' W 009°07'713.4
2018-Jun-14 00:30N 36°42' W 008°59'713.3
2018-Jun-14 00:00N 36°40' W 008°51'1013.4
2018-Jun-13 23:17N 36°37' W 008°39'413.5
2018-Jun-13 23:01N 36°36' W 008°35'713.6
2018-Jun-13 22:31N 36°34' W 008°27'713.8
2018-Jun-13 21:58N 36°31' W 008°18'813.8
2018-Jun-13 21:23N 36°29' W 008°08'513.8
2018-Jun-13 21:01N 36°27' W 008°02'714.0
2018-Jun-13 20:30N 36°25' W 007°54'2813.8
2018-Jun-13 18:30N 36°17' W 007°21'8613.3
2018-Jun-13 12:02N 35°58' W 005°37'013.3
2018-Jun-13 12:00N 35°58' W 005°37'612.2
2018-Jun-13 11:30N 35°59' W 005°30'511.0
2018-Jun-13 11:00N 36°02' W 005°24'4 8.7
2018-Jun-13 10:30N 36°07' W 005°25'1 2.0
2018-Jun-13 10:00N 36°08' W 005°25'0 0.0
2018-Jun-13 09:30N 36°08' W 005°25'0 0.0
2018-Jun-13 09:00N 36°08' W 005°25'0 0.0
2018-Jun-13 08:30N 36°08' W 005°25'0 0.0
2018-Jun-13 06:05N 36°08' W 005°25'0 0.0
2018-Jun-13 05:59N 36°08' W 005°25'0 0.0
2018-Jun-13 05:22N 36°08' W 005°25'0 0.0
2018-Jun-13 04:57N 36°08' W 005°25'0 0.0
2018-Jun-13 04:30N 36°08' W 005°25'0 0.0
2018-Jun-13 03:59N 36°08' W 005°25'0 0.0
2018-Jun-13 03:28N 36°08' W 005°25'0 0.0
2018-Jun-13 03:01N 36°08' W 005°25'0 0.0
2018-Jun-13 02:20N 36°08' W 005°25'0 0.0
2018-Jun-13 01:59N 36°08' W 005°25'0 0.0
2018-Jun-13 01:28N 36°08' W 005°25'0 0.0
2018-Jun-13 00:58N 36°08' W 005°25'0 0.0
2018-Jun-13 00:28N 36°08' W 005°25'0 0.0
2018-Jun-12 23:58N 36°08' W 005°25'1 2.0
2018-Jun-12 23:30N 36°08' W 005°25'4 7.3
2018-Jun-12 22:58N 36°05' W 005°22'4 8.8
2018-Jun-12 22:31N 36°02' W 005°19'713.9
2018-Jun-12 22:00N 35°58' W 005°27'2014.7
2018-Jun-12 20:37N 35°55' W 005°51'214.2
2018-Jun-12 20:30N 35°55' W 005°54'58015.6
2018-Jun-11 07:23N 28°32' W 013°17'1317.3
2018-Jun-11 06:37N 28°21' W 013°26'815.0
2018-Jun-11 06:04N 28°14' W 013°32'515.2
2018-Jun-11 05:44N 28°10' W 013°35'315.1
2018-Jun-11 05:30N 28°08' W 013°37'  
Track history (hours):
 
Tides and Currents Weather Stations Pressure Air Temp Water Temp Dewpoint Dewpoint Depression Visibility Wind Speed Wind Dir Waves Ship Positions

CMA CGM Africa One

Last reported at 2018-Jun-19 02:30 UTC. Time now 2018-Jun-19 02:41 UTC.
Position N 51°28' E 000°20'.

Length 228 m; draft 8.3 m.

Type: Ship. MMSI: 311043200.

Date/timePositionNaut miles runAvg speedWind from/ knotsBaromVisibWave heightAir tempDewpointWater temp
2018-Jun-19 02:30N 51°28' E 000°20'0 0.0
2018-Jun-19 02:00N 51°28' E 000°20'0 0.0
2018-Jun-19 01:30N 51°28' E 000°20'0 0.0
2018-Jun-19 01:00N 51°28' E 000°20'0 0.0
2018-Jun-19 00:30N 51°28' E 000°20'0 0.0
2018-Jun-19 00:00N 51°28' E 000°20'0 0.0
2018-Jun-18 23:30N 51°28' E 000°20'0 0.0
2018-Jun-18 23:01N 51°28' E 000°20'0 0.0
2018-Jun-18 22:30N 51°28' E 000°20'0 0.0
2018-Jun-18 22:01N 51°28' E 000°20'0 0.0
2018-Jun-18 21:30N 51°28' E 000°20'0 0.0
2018-Jun-18 21:01N 51°28' E 000°20'0 0.0
2018-Jun-18 20:31N 51°28' E 000°20'0 0.0
2018-Jun-18 20:00N 51°28' E 000°20'0 0.0
2018-Jun-18 19:31N 51°28' E 000°20'0 0.0
2018-Jun-18 19:00N 51°28' E 000°20'0 0.0
2018-Jun-18 18:30N 51°28' E 000°20'0 0.0
2018-Jun-18 18:00N 51°28' E 000°20'0 0.0
2018-Jun-18 17:31N 51°28' E 000°20'0 0.0
2018-Jun-18 17:00N 51°28' E 000°20'0 0.0
2018-Jun-18 16:30N 51°28' E 000°20'0 0.0
2018-Jun-18 16:00N 51°28' E 000°20'0 0.0
2018-Jun-18 15:31N 51°28' E 000°20'0 0.0
2018-Jun-18 15:00N 51°28' E 000°20'0 0.0
2018-Jun-18 14:30N 51°28' E 000°20'0 0.0
2018-Jun-18 14:01N 51°28' E 000°20'0 0.0
2018-Jun-18 13:30N 51°28' E 000°20'0 0.3
2018-Jun-18 13:01N 51°27' E 000°20'3 6.8
2018-Jun-18 12:30N 51°27' E 000°25'511.0
2018-Jun-18 12:00N 51°30' E 000°32'815.2
2018-Jun-18 11:31N 51°30' E 000°44'816.6
2018-Jun-18 11:01N 51°29' E 000°58'917.1
2018-Jun-18 10:30N 51°33' E 001°10'714.6
2018-Jun-18 10:01N 51°36' E 001°20'511.0
2018-Jun-18 09:31N 51°33' E 001°27'714.3
2018-Jun-18 09:01N 51°26' E 001°32'4 7.8
2018-Jun-18 08:30N 51°23' E 001°35'4 8.4
2018-Jun-18 08:01N 51°19' E 001°37'5 9.3
2018-Jun-18 07:31N 51°14' E 001°39'510.0
2018-Jun-18 07:01N 51°10' E 001°36'611.6
2018-Jun-18 06:31N 51°06' E 001°42'510.8
2018-Jun-18 06:01N 51°03' E 001°50'611.0
2018-Jun-18 05:30N 51°03' E 001°58'713.3
2018-Jun-18 05:00N 51°03' E 002°09'2 2.1
2018-Jun-18 03:54N 51°01' E 002°11'0 0.0
2018-Jun-18 03:30N 51°01' E 002°11'0 0.0
2018-Jun-18 00:56N 51°01' E 002°11'0 0.0
2018-Jun-18 00:16N 51°01' E 002°11'0 0.0
2018-Jun-17 23:49N 51°01' E 002°11'0 0.0
2018-Jun-17 23:25N 51°01' E 002°11'0 0.0
2018-Jun-17 22:15N 51°01' E 002°11'0 0.0
2018-Jun-17 21:57N 51°01' E 002°11'0 0.0
2018-Jun-17 21:14N 51°01' E 002°11'0 0.0
2018-Jun-17 20:56N 51°01' E 002°11'0 0.0
2018-Jun-17 20:16N 51°01' E 002°11'0 0.0
2018-Jun-17 19:37N 51°01' E 002°11'0 0.0
2018-Jun-17 18:22N 51°01' E 002°11'0 0.0
2018-Jun-17 17:58N 51°01' E 002°11'0 0.0
2018-Jun-17 17:30N 51°01' E 002°11'0 0.0
2018-Jun-17 16:14N 51°01' E 002°11'0 0.0
2018-Jun-17 15:53N 51°01' E 002°11'0 0.0
2018-Jun-17 15:27N 51°01' E 002°11'0 0.0
2018-Jun-17 15:00N 51°01' E 002°11'0 0.0
2018-Jun-17 14:24N 51°01' E 002°11'1 2.5
2018-Jun-17 14:00N 51°02' E 002°10'612.7
2018-Jun-17 13:30N 51°03' E 002°00'715.0
2018-Jun-17 13:01N 51°02' E 001°48'510.4
2018-Jun-17 12:30N 51°01' E 001°40'713.6
2018-Jun-17 12:00N 50°56' E 001°33'612.6
2018-Jun-17 11:30N 50°50' E 001°28'711.7
2018-Jun-17 10:53N 50°44' E 001°24'411.0
2018-Jun-17 10:29N 50°40' E 001°20'2710.9
2018-Jun-17 07:59N 50°25' E 000°44'2111.1
2018-Jun-17 06:05N 50°20' E 000°12'210.7
2018-Jun-17 05:54N 50°19' E 000°09'410.7
2018-Jun-17 05:30N 50°18' E 000°03'910.6
2018-Jun-17 04:36N 50°16' W 000°12'110.5
2018-Jun-17 04:30N 50°16' W 000°13'510.4
2018-Jun-17 04:00N 50°15' W 000°21'510.6
2018-Jun-17 03:30N 50°14' W 000°29'510.8
2018-Jun-17 03:00N 50°12' W 000°37'611.1
2018-Jun-17 02:26N 50°10' W 000°47'611.7
2018-Jun-17 01:54N 50°08' W 000°56'812.6
2018-Jun-17 01:17N 50°06' W 001°08'513.4
2018-Jun-17 00:56N 50°05' W 001°15'614.1
2018-Jun-17 00:30N 50°03' W 001°24'814.9
2018-Jun-16 23:58N 50°01' W 001°36'3116.1
2018-Jun-16 22:03N 49°54' W 002°23'216.2
2018-Jun-16 21:57N 49°54' W 002°25'815.8
2018-Jun-16 21:28N 49°51' W 002°36'715.6
2018-Jun-16 21:00N 49°49' W 002°47'815.0
2018-Jun-16 20:29N 49°46' W 002°58'1414.6
2018-Jun-16 19:31N 49°38' W 003°16'214.2
2018-Jun-16 19:23N 49°37' W 003°19'1014.3
2018-Jun-16 18:43N 49°32' W 003°31'414.0
2018-Jun-16 18:26N 49°30' W 003°36'1114.0
2018-Jun-16 17:37N 49°24' W 003°52'213.9
2018-Jun-16 17:30N 49°24' W 003°54'3513.2
2018-Jun-16 14:49N 49°06' W 004°41'412.0
2018-Jun-16 14:28N 49°04' W 004°47'612.0
2018-Jun-16 13:59N 49°01' W 004°55'1211.2
2018-Jun-16 12:56N 48°56' W 005°10'510.9
2018-Jun-16 12:30N 48°53' W 005°16'510.7
2018-Jun-16 12:00N 48°51' W 005°24'510.4
2018-Jun-16 11:30N 48°48' W 005°30'57412.9
2018-Jun-14 15:02N 39°45' W 009°50'213.0
2018-Jun-14 14:52N 39°43' W 009°50'1913.0
2018-Jun-14 13:23N 39°24' W 009°51'513.2
2018-Jun-14 13:00N 39°19' W 009°51'713.2
2018-Jun-14 12:30N 39°12' W 009°51'713.2
2018-Jun-14 12:00N 39°06' W 009°51'713.2
2018-Jun-14 11:30N 38°59' W 009°51'713.2
2018-Jun-14 11:00N 38°52' W 009°51'713.3
2018-Jun-14 10:30N 38°46' W 009°51'713.4
2018-Jun-14 10:00N 38°39' W 009°50'612.7
2018-Jun-14 09:30N 38°33' W 009°48'612.6
2018-Jun-14 09:00N 38°27' W 009°46'612.6
2018-Jun-14 08:30N 38°21' W 009°44'612.5
2018-Jun-14 08:00N 38°15' W 009°42'612.5
2018-Jun-14 07:30N 38°09' W 009°40'815.6
2018-Jun-14 07:00N 38°01' W 009°38'1018.6
2018-Jun-14 06:27N 37°51' W 009°35'716.2
2018-Jun-14 06:00N 37°44' W 009°33'713.5
2018-Jun-14 05:30N 37°37' W 009°32'713.3
2018-Jun-14 05:00N 37°31' W 009°29'913.7
2018-Jun-14 04:21N 37°22' W 009°27'513.4
2018-Jun-14 03:57N 37°17' W 009°25'613.2
2018-Jun-14 03:28N 37°11' W 009°24'713.2
2018-Jun-14 02:55N 37°03' W 009°23'913.1
2018-Jun-14 02:15N 36°55' W 009°20'312.7
2018-Jun-14 02:00N 36°52' W 009°19'613.1
2018-Jun-14 01:31N 36°47' W 009°14'713.2
2018-Jun-14 01:01N 36°44' W 009°07'713.4
2018-Jun-14 00:30N 36°42' W 008°59'713.3
2018-Jun-14 00:00N 36°40' W 008°51'1013.4
2018-Jun-13 23:17N 36°37' W 008°39'413.5
2018-Jun-13 23:01N 36°36' W 008°35'713.6
2018-Jun-13 22:31N 36°34' W 008°27'713.8
2018-Jun-13 21:58N 36°31' W 008°18'813.8
2018-Jun-13 21:23N 36°29' W 008°08'513.8
2018-Jun-13 21:01N 36°27' W 008°02'714.0
2018-Jun-13 20:30N 36°25' W 007°54'2813.8
2018-Jun-13 18:30N 36°17' W 007°21'8613.3
2018-Jun-13 12:02N 35°58' W 005°37'013.3
2018-Jun-13 12:00N 35°58' W 005°37'612.2
2018-Jun-13 11:30N 35°59' W 005°30'511.0
2018-Jun-13 11:00N 36°02' W 005°24'4 8.7
2018-Jun-13 10:30N 36°07' W 005°25'1 2.0
2018-Jun-13 10:00N 36°08' W 005°25'0 0.0
2018-Jun-13 09:30N 36°08' W 005°25'0 0.0
2018-Jun-13 09:00N 36°08' W 005°25'0 0.0
2018-Jun-13 08:30N 36°08' W 005°25'0 0.0
2018-Jun-13 06:05N 36°08' W 005°25'0 0.0
2018-Jun-13 05:59N 36°08' W 005°25'0 0.0
2018-Jun-13 05:22N 36°08' W 005°25'0 0.0
2018-Jun-13 04:57N 36°08' W 005°25'0 0.0
2018-Jun-13 04:30N 36°08' W 005°25'0 0.0
2018-Jun-13 03:59N 36°08' W 005°25'0 0.0
2018-Jun-13 03:28N 36°08' W 005°25'0 0.0
2018-Jun-13 03:01N 36°08' W 005°25'0 0.0
2018-Jun-13 02:20N 36°08' W 005°25'0 0.0
2018-Jun-13 01:59N 36°08' W 005°25'0 0.0
2018-Jun-13 01:28N 36°08' W 005°25'0 0.0
2018-Jun-13 00:58N 36°08' W 005°25'0 0.0
2018-Jun-13 00:28N 36°08' W 005°25'0 0.0
2018-Jun-12 23:58N 36°08' W 005°25'1 2.0
2018-Jun-12 23:30N 36°08' W 005°25'4 7.3
2018-Jun-12 22:58N 36°05' W 005°22'4 8.8
2018-Jun-12 22:31N 36°02' W 005°19'713.9
2018-Jun-12 22:00N 35°58' W 005°27'2014.7
2018-Jun-12 20:37N 35°55' W 005°51'214.2
2018-Jun-12 20:30N 35°55' W 005°54'58015.6
2018-Jun-11 07:23N 28°32' W 013°17'1317.3
2018-Jun-11 06:37N 28°21' W 013°26'815.0
2018-Jun-11 06:04N 28°14' W 013°32'515.2
2018-Jun-11 05:44N 28°10' W 013°35'315.1
2018-Jun-11 05:30N 28°08' W 013°37'  

Dump ship's entire track history